Time;durP1;ratioP1;P1;durP2;ratioP2;P2;SDS_P1;SDS_P2;PMS_P1;PMS_P2;Temp;Humidity;BMP_temperature;BMP_pressure;BME280_temperature;BME280_humidity;BME280_pressure;Samples;Min_cycle;Max_cycle;Signal;HPM_P1;HPM_P2
2022/08/07 00:00:19;;;;;;;;;;;;;;;21.93;29.93;97515.16;5055918;28;966;-77
2022/08/07 00:02:44;;;;;;;;;;;;;;;21.85;29.97;97518.22;5056230;28;919;-77
2022/08/07 00:05:10;;;;;;;;;;;;;;;21.92;29.94;97508.69;5056364;28;929;-77
2022/08/07 00:07:35;;;;;;;;;;;;;;;21.74;30.15;97505.69;5054874;28;1451;-77
2022/08/07 00:10:01;;;;;;;;;;;;;;;21.81;30.34;97509.06;5056011;28;904;-77
2022/08/07 00:12:26;;;;;;;;;;;;;;;21.83;30.11;97503.72;5056279;28;1981;-77
2022/08/07 00:14:52;;;;;;;;;;;;;;;21.58;30.45;97513.09;5056047;28;1030;-77
2022/08/07 00:17:17;;;;;;;;;;;;;;;21.92;30.09;97522.06;5054123;28;1355;-77
2022/08/07 00:19:43;;;;;;;;;;;;;;;22.01;29.83;97517.25;5053541;28;929;-77
2022/08/07 00:22:08;;;;;;;;;;;;;;;22.06;29.62;97518.72;5055565;28;904;-77
2022/08/07 00:24:33;;;;;;;;;;;;;;;21.83;30.32;97512.22;5055847;28;924;-77
2022/08/07 00:26:59;;;;;;;;;;;;;;;21.98;29.92;97508.91;5055986;28;927;-77
2022/08/07 00:29:27;;;;;;;;;;;;;;;21.72;30.28;97511.81;5056163;28;1033;-77
2022/08/07 00:31:53;;;;;;;;;;;;;;;21.63;30.60;97500.41;5055072;28;1922;-77
2022/08/07 00:34:18;;;;;;;;;;;;;;;21.75;30.23;97495.94;5055549;28;956;-77
2022/08/07 00:36:44;;;;;;;;;;;;;;;22.20;29.60;97501.22;5056160;28;903;-77
2022/08/07 00:39:12;;;;;;;;;;;;;;;21.66;30.61;97498.69;5055871;28;948;-77
2022/08/07 00:41:38;;;;;;;;;;;;;;;21.91;30.28;97507.09;5054647;28;1228;-77
2022/08/07 00:44:03;;;;;;;;;;;;;;;21.77;30.00;97508.41;5054314;28;980;-77
2022/08/07 00:46:29;;;;;;;;;;;;;;;21.76;29.96;97506.84;5054179;28;1565;-77
2022/08/07 00:48:55;;;;;;;;;;;;;;;21.84;29.91;97510.97;5053937;28;1206;-77
2022/08/07 00:51:20;;;;;;;;;;;;;;;21.92;29.69;97508.69;5055293;28;1977;-77
2022/08/07 00:53:46;;;;;;;;;;;;;;;21.76;30.09;97495.50;5055293;28;951;-77
2022/08/07 00:56:14;;;;;;;;;;;;;;;21.75;30.04;97499.56;5013651;28;1138;-77
2022/08/07 00:58:41;;;;;;;;;;;;;;;21.98;29.77;97511.72;4997327;28;928;-77
2022/08/07 01:01:07;;;;;;;;;;;;;;;21.78;29.94;97515.66;4973503;28;1570;-77
2022/08/07 01:03:32;;;;;;;;;;;;;;;21.76;29.86;97501.16;4974593;28;917;-77
2022/08/07 01:05:57;;;;;;;;;;;;;;;21.84;29.65;97508.16;4974566;28;951;-77
2022/08/07 01:08:23;;;;;;;;;;;;;;;21.76;30.12;97506.84;4975866;28;916;-77
2022/08/07 01:10:48;;;;;;;;;;;;;;;21.89;29.96;97505.97;4977869;28;1422;-77
2022/08/07 01:13:14;;;;;;;;;;;;;;;21.62;30.19;97510.16;4923888;29;1973;-77
2022/08/07 01:15:39;;;;;;;;;;;;;;;21.98;29.59;97511.72;4938738;29;1692;-77
2022/08/07 01:18:05;;;;;;;;;;;;;;;22.00;29.52;97506.38;4923507;29;1013;-77
2022/08/07 01:20:33;;;;;;;;;;;;;;;21.88;29.72;97507.25;4923581;29;961;-77
2022/08/07 01:22:58;;;;;;;;;;;;;;;21.96;29.71;97506.50;4939474;29;1009;-77
2022/08/07 01:25:24;;;;;;;;;;;;;;;21.69;29.75;97501.41;4923566;29;973;-77
2022/08/07 01:27:51;;;;;;;;;;;;;;;21.88;29.58;97512.91;4923413;29;1158;-77
2022/08/07 01:30:16;;;;;;;;;;;;;;;21.85;29.66;97503.28;4938870;28;1311;-77
2022/08/07 01:32:42;;;;;;;;;;;;;;;21.75;29.80;97505.22;4939120;28;1906;-77
2022/08/07 01:35:08;;;;;;;;;;;;;;;21.87;29.85;97505.66;4939579;29;972;-77
2022/08/07 01:37:34;;;;;;;;;;;;;;;21.85;30.16;97512.56;4939161;28;1494;-77
2022/08/07 01:40:03;;;;;;;;;;;;;;;21.88;29.84;97519.34;4939351;29;1183;-77
2022/08/07 01:42:30;;;;;;;;;;;;;;;22.09;29.32;97512.91;4958939;28;1418;-77
2022/08/07 01:44:56;;;;;;;;;;;;;;;21.99;29.66;97507.66;4988116;28;1520;-77
2022/08/07 01:47:22;;;;;;;;;;;;;;;21.97;29.85;97510.16;4979079;28;1368;-77
2022/08/07 01:49:48;;;;;;;;;;;;;;;21.62;30.36;97524.31;4996567;28;1064;-77
2022/08/07 01:52:14;;;;;;;;;;;;;;;21.96;30.14;97519.88;4977256;28;1977;-77
2022/08/07 01:54:40;;;;;;;;;;;;;;;21.93;29.89;97512.31;4922566;29;1636;-77
2022/08/07 01:57:12;;;;;;;;;;;;;;;21.94;30.00;97511.84;4907578;29;1229;-77
2022/08/07 01:59:42;;;;;;;;;;;;;;;21.83;30.47;97512.22;4903817;29;1301;-77
2022/08/07 02:02:10;;;;;;;;;;;;;;;21.89;30.28;97505.97;4903227;29;1461;-77
2022/08/07 02:04:35;;;;;;;;;;;;;;;21.87;30.03;97517.00;4881949;29;1390;-77
2022/08/07 02:07:02;;;;;;;;;;;;;;;21.73;30.32;97516.22;4881794;29;1262;-78
2022/08/07 02:09:28;;;;;;;;;;;;;;;21.75;30.52;97516.56;4881805;29;971;-77
2022/08/07 02:11:55;;;;;;;;;;;;;;;22.04;30.19;97509.88;4881774;29;1903;-77
2022/08/07 02:14:22;;;;;;;;;;;;;;;22.07;29.94;97508.94;4881962;29;1572;-77
2022/08/07 02:16:48;;;;;;;;;;;;;;;22.11;30.00;97518.16;4877013;29;1518;-77
2022/08/07 02:19:16;;;;;;;;;;;;;;;21.79;30.29;97511.56;4877851;29;1416;-77
2022/08/07 02:21:42;;;;;;;;;;;;;;;22.06;30.01;97504.53;4897556;29;1075;-77
2022/08/07 02:24:07;;;;;;;;;;;;;;;21.90;30.36;97511.19;4916550;29;1183;-77
2022/08/07 02:26:33;;;;;;;;;;;;;;;21.84;30.70;97502.47;4922255;29;1049;-77
2022/08/07 02:28:59;;;;;;;;;;;;;;;22.04;30.44;97509.88;4938112;29;952;-77
2022/08/07 02:31:24;;;;;;;;;;;;;;;21.70;31.00;97508.63;4969241;28;1910;-77
2022/08/07 02:33:50;;;;;;;;;;;;;;;22.01;30.74;97500.25;4979265;28;1532;-77
2022/08/07 02:36:16;;;;;;;;;;;;;;;22.16;30.46;97508.28;5010687;28;1123;-77
2022/08/07 02:38:42;;;;;;;;;;;;;;;21.98;30.66;97501.19;4995734;28;1103;-77
2022/08/07 02:41:08;;;;;;;;;;;;;;;21.92;30.90;97496.59;4996080;28;865;-77
2022/08/07 02:43:34;;;;;;;;;;;;;;;22.03;30.52;97511.16;4956806;28;1152;-78
2022/08/07 02:45:59;;;;;;;;;;;;;;;22.12;30.37;97505.56;4941214;29;1221;-77
2022/08/07 02:48:25;;;;;;;;;;;;;;;21.75;30.88;97504.44;4955349;28;1515;-77
2022/08/07 02:50:51;;;;;;;;;;;;;;;21.84;31.09;97502.47;4957075;28;1294;-77
2022/08/07 02:53:18;;;;;;;;;;;;;;;21.81;31.09;97500.59;4940636;29;1910;-77
2022/08/07 02:55:46;;;;;;;;;;;;;;;22.21;30.40;97502.78;4956972;29;940;-77
2022/08/07 02:58:12;;;;;;;;;;;;;;;22.08;30.57;97500.00;4960433;28;1316;-77
2022/08/07 03:00:39;;;;;;;;;;;;;;;22.01;30.78;97499.47;4974854;28;1438;-77
2022/08/07 03:03:07;;;;;;;;;;;;;;;21.94;31.03;97502.56;4975795;28;1435;-77
2022/08/07 03:05:36;;;;;;;;;;;;;;;22.32;30.26;97502.41;4975946;28;1259;-77
2022/08/07 03:08:02;;;;;;;;;;;;;;;22.03;30.50;97500.59;4974839;28;1275;-77
2022/08/07 03:10:27;;;;;;;;;;;;;;;21.73;30.95;97496.41;4991510;28;1139;-77
2022/08/07 03:12:53;;;;;;;;;;;;;;;21.83;30.74;97500.13;4978967;28;1975;-77
2022/08/07 03:15:18;;;;;;;;;;;;;;;22.03;30.38;97496.97;4959449;28;1073;-77
2022/08/07 03:17:44;;;;;;;;;;;;;;;21.95;30.70;97502.09;4944168;28;1168;-77
2022/08/07 03:20:11;;;;;;;;;;;;;;;22.07;30.29;97503.28;4947455;28;983;-77
2022/08/07 03:22:37;;;;;;;;;;;;;;;21.79;31.04;97505.09;4952348;28;1457;-77
2022/08/07 03:25:03;;;;;;;;;;;;;;;21.99;30.73;97499.16;4962819;28;1175;-77
2022/08/07 03:27:36;;;;;;;;;;;;;;;22.02;30.41;97506.72;4956200;29;1212;-77
2022/08/07 03:30:02;;;;;;;;;;;;;;;21.90;30.56;97510.38;4939997;28;942;-77
2022/08/07 03:32:35;;;;;;;;;;;;;;;21.72;30.72;97500.50;4936538;29;1977;-77
2022/08/07 03:35:03;;;;;;;;;;;;;;;22.11;30.37;97503.97;4953018;28;1056;-78
2022/08/07 03:37:30;;;;;;;;;;;;;;;22.09;30.34;97506.47;4926045;29;1387;-77
2022/08/07 03:39:55;;;;;;;;;;;;;;;21.74;30.83;97503.66;4940244;29;1426;-77
2022/08/07 03:42:21;;;;;;;;;;;;;;;21.97;30.65;97510.16;4923533;29;1207;-77
2022/08/07 03:44:48;;;;;;;;;;;;;;;22.10;30.73;97514.53;4953034;28;1088;-77
2022/08/07 03:47:13;;;;;;;;;;;;;;;21.94;30.71;97511.06;4935272;28;1103;-77
2022/08/07 03:49:39;;;;;;;;;;;;;;;21.67;31.20;97520.91;4933834;29;976;-77
2022/08/07 03:52:05;;;;;;;;;;;;;;;21.87;30.90;97514.16;4947752;28;1972;-77
2022/08/07 03:54:31;;;;;;;;;;;;;;;21.96;30.49;97508.56;4960280;28;1448;-77
2022/08/07 03:56:56;;;;;;;;;;;;;;;22.16;30.37;97523.22;4952792;28;1133;-77
2022/08/07 03:59:22;;;;;;;;;;;;;;;22.03;30.54;97519.66;4969957;28;1230;-77
2022/08/07 04:01:49;;;;;;;;;;;;;;;22.11;30.55;97515.31;4975040;28;1322;-77
2022/08/07 04:04:19;;;;;;;;;;;;;;;21.82;30.64;97521.19;4977166;28;1238;-77
2022/08/07 04:06:51;;;;;;;;;;;;;;;21.75;30.85;97515.75;4974706;28;920;-77
2022/08/07 04:09:20;;;;;;;;;;;;;;;21.92;30.76;97513.56;4935672;29;1412;-77
2022/08/07 04:11:45;;;;;;;;;;;;;;;21.83;30.86;97511.44;4934906;29;1915;-77
2022/08/07 04:14:11;;;;;;;;;;;;;;;21.96;30.58;97509.34;4936138;29;1242;-77
2022/08/07 04:16:37;;;;;;;;;;;;;;;22.15;30.07;97513.16;4935977;29;1081;-77
2022/08/07 04:19:03;;;;;;;;;;;;;;;21.81;30.78;97514.75;4938832;29;1301;-77
2022/08/07 04:21:29;;;;;;;;;;;;;;;21.79;31.00;97519.28;4920313;29;1493;-77
2022/08/07 04:23:55;;;;;;;;;;;;;;;21.91;30.80;97520.47;4931994;29;1708;-77
2022/08/07 04:26:20;;;;;;;;;;;;;;;21.98;30.74;97515.34;4916814;29;1164;-77
2022/08/07 04:28:46;;;;;;;;;;;;;;;21.87;30.78;97522.66;4916870;29;1481;-77
2022/08/07 04:31:11;;;;;;;;;;;;;;;21.99;30.89;97519.75;4913547;29;1914;-77
2022/08/07 04:33:37;;;;;;;;;;;;;;;21.96;30.91;97528.38;4882428;29;1027;-77
2022/08/07 04:36:03;;;;;;;;;;;;;;;21.75;31.42;97521.44;4882235;29;1013;-77
2022/08/07 04:38:28;;;;;;;;;;;;;;;21.85;31.19;97523.09;4867594;29;1221;-77
2022/08/07 04:40:55;;;;;;;;;;;;;;;21.96;30.79;97520.66;4916673;29;1330;-77
2022/08/07 04:43:29;;;;;;;;;;;;;;;22.15;30.66;97527.31;4903869;29;971;-77
2022/08/07 04:45:55;;;;;;;;;;;;;;;22.28;30.66;97528.06;4889366;29;987;-77
2022/08/07 04:48:23;;;;;;;;;;;;;;;22.19;30.73;97527.97;4920380;29;1598;-77
2022/08/07 04:51:09;;;;;;;;;;;;;;;22.14;31.00;97531.41;4924059;29;1168;-77
2022/08/07 04:53:34;;;;;;;;;;;;;;;22.26;30.87;97529.75;4926194;29;993;-77
2022/08/07 04:56:12;;;;;;;;;;;;;;;21.87;31.47;97522.66;4956134;29;926;-77
2022/08/07 04:59:00;;;;;;;;;;;;;;;21.98;31.27;97534.41;4958908;29;934;-77
2022/08/07 05:01:49;;;;;;;;;;;;;;;22.03;31.33;97540.25;4916605;29;952;-77
2022/08/07 05:04:15;;;;;;;;;;;;;;;22.04;31.23;97543.88;4849003;29;1170;-77
2022/08/07 05:06:48;;;;;;;;;;;;;;;22.00;31.29;97546.03;4827346;29;1113;-77
2022/08/07 05:09:39;;;;;;;;;;;;;;;22.12;31.03;97533.88;4790993;30;1132;-78
2022/08/07 05:12:05;;;;;;;;;;;;;;;22.16;30.87;97545.91;4737698;30;1986;-77
2022/08/07 05:14:38;;;;;;;;;;;;;;;22.24;31.09;97541.56;4737556;30;1287;-77
2022/08/07 05:17:06;;;;;;;;;;;;;;;22.16;31.15;97545.91;4719964;30;1344;-77
2022/08/07 05:19:39;;;;;;;;;;;;;;;21.91;31.63;97537.47;4702672;30;1306;-77
2022/08/07 05:22:05;;;;;;;;;;;;;;;21.90;31.25;97538.72;4702466;30;1013;-77
2022/08/07 05:24:35;;;;;;;;;;;;;;;22.16;31.09;97539.44;4702421;30;1148;-77
2022/08/07 05:27:00;;;;;;;;;;;;;;;22.06;30.87;97541.38;4702322;30;1406;-77
2022/08/07 05:29:26;;;;;;;;;;;;;;;22.09;31.04;97549.75;4719250;30;1262;-77
2022/08/07 05:31:52;;;;;;;;;;;;;;;21.99;31.28;97547.31;4697912;30;1904;-77
2022/08/07 05:34:21;;;;;;;;;;;;;;;22.12;30.94;97548.06;4687483;30;1182;-77
2022/08/07 05:36:49;;;;;;;;;;;;;;;22.13;31.16;97552.50;4701995;30;1127;-77
2022/08/07 05:39:22;;;;;;;;;;;;;;;22.32;30.61;97565.53;4729110;30;1087;-77
2022/08/07 05:41:49;;;;;;;;;;;;;;;22.43;30.69;97561.53;4754643;30;1294;-77
2022/08/07 05:44:16;;;;;;;;;;;;;;;21.95;31.21;97557.97;4719693;30;1563;-77
2022/08/07 05:46:45;;;;;;;;;;;;;;;22.09;31.06;97557.47;4734497;30;1252;-77
2022/08/07 05:49:10;;;;;;;;;;;;;;;22.04;31.34;97573.00;4738872;30;1273;-77
2022/08/07 05:51:36;;;;;;;;;;;;;;;22.15;31.05;97561.31;4793099;29;1912;-77
2022/08/07 05:54:02;;;;;;;;;;;;;;;22.23;30.86;97571.16;4774173;30;1043;-77
2022/08/07 05:56:28;;;;;;;;;;;;;;;22.29;30.96;97572.16;4809654;29;935;-77
2022/08/07 05:58:53;;;;;;;;;;;;;;;22.25;31.03;97576.34;4841625;29;1313;-77
2022/08/07 06:01:22;;;;;;;;;;;;;;;22.00;31.58;97580.84;4795612;29;1235;-77
2022/08/07 06:03:50;;;;;;;;;;;;;;;22.06;31.38;97578.19;4777691;30;1524;-77
2022/08/07 06:06:16;;;;;;;;;;;;;;;21.99;31.68;97575.63;4764336;30;1262;-77
2022/08/07 06:08:42;;;;;;;;;;;;;;;22.31;31.10;97568.84;4758370;30;1329;-77
2022/08/07 06:11:07;;;;;;;;;;;;;;;22.43;31.03;97578.53;4754243;30;1895;-77
2022/08/07 06:13:34;;;;;;;;;;;;;;;22.22;31.23;97583.72;4761104;30;1044;-77
2022/08/07 06:15:59;;;;;;;;;;;;;;;21.99;31.61;97584.13;4804405;29;1013;-77
2022/08/07 06:18:26;;;;;;;;;;;;;;;22.19;31.25;97579.00;4808154;29;931;-77
2022/08/07 06:20:52;;;;;;;;;;;;;;;22.19;31.37;97579.00;4844090;29;982;-77
2022/08/07 06:23:18;;;;;;;;;;;;;;;22.09;31.72;97580.13;4862516;29;1206;-77
2022/08/07 06:25:45;;;;;;;;;;;;;;;22.20;31.82;97574.91;4862741;29;1178;-77
2022/08/07 06:28:10;;;;;;;;;;;;;;;22.06;31.67;97581.03;4848159;29;1134;-77
2022/08/07 06:30:37;;;;;;;;;;;;;;;22.17;31.66;97578.63;4858765;29;1338;-77
2022/08/07 06:33:07;;;;;;;;;;;;;;;22.07;31.87;97576.94;4896242;29;1960;-77
2022/08/07 06:35:33;;;;;;;;;;;;;;;22.08;31.98;97584.22;4884927;29;965;-77
2022/08/07 06:37:59;;;;;;;;;;;;;;;22.16;31.64;97579.91;4918716;29;1249;-77
2022/08/07 06:40:24;;;;;;;;;;;;;;;22.31;31.25;97580.97;4932310;29;1254;-77
2022/08/07 06:42:50;;;;;;;;;;;;;;;22.14;31.44;97593.75;4921900;29;941;-77
2022/08/07 06:45:28;;;;;;;;;;;;;;;22.18;31.48;97591.59;4923408;29;1154;-77
2022/08/07 06:47:59;;;;;;;;;;;;;;;22.26;31.59;97583.59;4937505;29;1233;-77
2022/08/07 06:50:27;;;;;;;;;;;;;;;22.29;31.33;97588.38;4921701;29;1274;-77
2022/08/07 06:52:53;;;;;;;;;;;;;;;22.33;31.48;97595.50;4940679;29;1975;-77
2022/08/07 06:55:25;;;;;;;;;;;;;;;22.31;31.48;97592.31;4925146;29;1071;-77
2022/08/07 06:57:51;;;;;;;;;;;;;;;22.18;31.68;97596.47;4912331;29;1428;-77
2022/08/07 07:00:20;;;;;;;;;;;;;;;22.14;31.98;97588.06;4926754;29;1490;-76
2022/08/07 07:02:47;;;;;;;;;;;;;;;22.27;31.99;97597.31;4921439;29;1191;-77
2022/08/07 07:05:12;;;;;;;;;;;;;;;22.17;32.10;97597.69;4933837;29;1492;-77
2022/08/07 07:07:37;;;;;;;;;;;;;;;22.29;31.88;97602.53;4933479;29;1689;-77
2022/08/07 07:10:03;;;;;;;;;;;;;;;22.28;32.36;97604.59;4858983;29;953;-77
2022/08/07 07:12:47;;;;;;;;;;;;;;;22.21;32.26;97599.16;4880190;29;1915;-77
2022/08/07 07:15:16;;;;;;;;;;;;;;;22.20;32.62;97606.06;4937068;29;937;-77
2022/08/07 07:18:02;;;;;;;;;;;;;;;22.18;32.56;97608.59;4917668;29;879;-77
2022/08/07 07:20:32;;;;;;;;;;;;;;;22.10;32.57;97598.72;4902312;29;987;-77
2022/08/07 07:22:58;;;;;;;;;;;;;;;22.12;32.69;97601.91;4906094;29;991;-77
2022/08/07 07:25:23;;;;;;;;;;;;;;;22.17;32.57;97614.69;4899091;29;890;-77
2022/08/07 07:27:51;;;;;;;;;;;;;;;22.19;32.87;97607.34;4860293;29;972;-77
2022/08/07 07:30:17;;;;;;;;;;;;;;;22.35;32.58;97607.16;4843185;29;898;-77
2022/08/07 07:32:42;;;;;;;;;;;;;;;22.25;32.58;97611.16;4898183;29;1978;-77
2022/08/07 07:35:09;;;;;;;;;;;;;;;22.36;32.59;97600.22;4900727;29;911;-77
2022/08/07 07:37:35;;;;;;;;;;;;;;;22.45;32.28;97612.91;4878981;29;921;-77
2022/08/07 07:40:01;;;;;;;;;;;;;;;22.42;32.54;97613.81;4845113;29;968;-77
2022/08/07 07:42:27;;;;;;;;;;;;;;;22.39;32.29;97609.09;4856808;29;903;-77
2022/08/07 07:44:52;;;;;;;;;;;;;;;22.40;32.26;97610.66;4840051;29;815;-77
2022/08/07 07:47:18;;;;;;;;;;;;;;;22.42;32.10;97619.47;4824869;29;992;-77
2022/08/07 07:49:43;;;;;;;;;;;;;;;22.41;32.33;97623.56;4859602;29;981;-77
2022/08/07 07:52:11;;;;;;;;;;;;;;;22.31;32.05;97632.00;4861161;29;1990;-77
2022/08/07 07:54:37;;;;;;;;;;;;;;;22.47;32.08;97627.41;4874928;29;1027;-77
2022/08/07 07:57:02;;;;;;;;;;;;;;;22.35;32.11;97624.16;4879157;29;1206;-77
2022/08/07 07:59:28;;;;;;;;;;;;;;;22.07;32.84;97623.09;4897859;29;912;-77
2022/08/07 08:01:53;;;;;;;;;;;;;;;22.16;32.44;97619.56;4898346;29;978;-77
2022/08/07 08:04:19;;;;;;;;;;;;;;;22.26;32.56;97623.28;4869245;29;1345;-77
2022/08/07 08:06:44;;;;;;;;;;;;;;;22.16;32.57;97630.91;4897809;29;994;-77
2022/08/07 08:09:09;;;;;;;;;;;;;;;22.33;32.22;97628.72;4906700;29;987;-77
2022/08/07 08:11:35;;;;;;;;;;;;;;;22.46;32.12;97625.81;4915192;29;1903;-77
2022/08/07 08:14:00;;;;;;;;;;;;;;;22.46;32.04;97632.28;4879661;29;910;-77
2022/08/07 08:16:33;;;;;;;;;;;;;;;22.41;32.19;97626.41;4879227;29;914;-77
2022/08/07 08:18:59;;;;;;;;;;;;;;;22.45;31.88;97624.25;4842010;29;965;-77
2022/08/07 08:27:08;;;;;;;;;;;;;;;22.45;32.11;97635.59;4860198;29;931;-77
2022/08/07 08:29:59;;;;;;;;;;;;;;;22.38;31.83;97630.94;4842054;29;1016;-77
2022/08/07 08:32:26;;;;;;;;;;;;;;;22.35;31.92;97631.88;4840705;29;1912;-77
2022/08/07 08:34:51;;;;;;;;;;;;;;;22.46;31.85;97632.28;4800615;29;823;-77
2022/08/07 08:37:17;;;;;;;;;;;;;;;22.39;32.05;97620.41;4805206;29;882;-77
2022/08/07 08:39:43;;;;;;;;;;;;;;;22.22;32.52;97629.06;4847117;29;967;-77
2022/08/07 08:42:10;;;;;;;;;;;;;;;22.33;32.20;97629.50;4845099;29;891;-77
2022/08/07 08:44:54;;;;;;;;;;;;;;;22.40;32.46;97622.78;4844878;29;968;-77
2022/08/07 08:47:38;;;;;;;;;;;;;;;22.40;32.58;97616.31;4860306;29;1202;-77
2022/08/07 08:50:04;;;;;;;;;;;;;;;22.37;32.58;97618.03;4870086;29;933;-77
2022/08/07 08:52:34;;;;;;;;;;;;;;;22.31;32.50;97620.66;4895917;29;1903;-77
2022/08/07 08:55:04;;;;;;;;;;;;;;;22.60;32.19;97614.75;4878602;29;1252;-77
2022/08/07 08:57:32;;;;;;;;;;;;;;;22.40;32.70;97619.16;4895764;29;909;-77
2022/08/07 09:00:07;;;;;;;;;;;;;;;22.57;32.38;97615.66;4916299;29;919;-77
2022/08/07 09:02:38;;;;;;;;;;;;;;;22.45;32.76;97618.56;4916870;29;875;-77
2022/08/07 09:05:03;;;;;;;;;;;;;;;22.27;32.80;97619.97;4922841;29;896;-77
2022/08/07 09:07:48;;;;;;;;;;;;;;;22.65;32.29;97621.88;4954405;29;883;-77
2022/08/07 09:10:34;;;;;;;;;;;;;;;22.52;32.15;97618.31;4960220;28;909;-77
2022/08/07 09:12:59;;;;;;;;;;;;;;;22.59;31.98;97618.06;4974180;28;1972;-77
2022/08/07 09:15:35;;;;;;;;;;;;;;;22.67;31.76;97629.91;4974025;28;904;-77
2022/08/07 09:18:13;;;;;;;;;;;;;;;22.41;32.19;97617.91;4954488;29;1148;-77
2022/08/07 09:20:38;;;;;;;;;;;;;;;22.51;32.02;97628.06;4954344;29;985;-77
2022/08/07 09:23:03;;;;;;;;;;;;;;;22.37;32.21;97623.69;4954263;28;809;-77
2022/08/07 09:25:42;;;;;;;;;;;;;;;22.57;31.82;97623.38;4965937;28;910;-77
2022/08/07 09:28:09;;;;;;;;;;;;;;;22.35;32.02;97627.00;5012855;28;920;-77
2022/08/07 09:30:53;;;;;;;;;;;;;;;22.31;32.36;97626.31;5015691;28;837;-77
2022/08/07 09:33:19;;;;;;;;;;;;;;;22.20;32.40;97620.25;5016075;28;1979;-77
2022/08/07 09:35:46;;;;;;;;;;;;;;;22.41;31.76;97623.56;5016273;28;834;-77
2022/08/07 09:38:18;;;;;;;;;;;;;;;22.39;31.90;97631.75;5000250;28;792;-77
2022/08/07 09:40:50;;;;;;;;;;;;;;;22.30;31.77;97624.75;5016113;28;834;-77
2022/08/07 09:43:28;;;;;;;;;;;;;;;22.50;31.67;97627.28;5016309;28;794;-77
2022/08/07 09:45:56;;;;;;;;;;;;;;;22.47;31.61;97624.56;4999921;28;810;-77
2022/08/07 09:48:35;;;;;;;;;;;;;;;22.40;31.34;97622.00;5025421;28;1084;-77
2022/08/07 09:51:00;;;;;;;;;;;;;;;22.42;31.50;97622.31;5055758;28;932;-77
2022/08/07 09:53:26;;;;;;;;;;;;;;;22.38;31.44;97618.81;5055763;28;1981;-77
2022/08/07 09:55:54;;;;;;;;;;;;;;;22.35;31.44;97627.00;5039199;28;773;-77
2022/08/07 09:58:19;;;;;;;;;;;;;;;22.48;31.20;97631.81;5055819;28;759;-77
2022/08/07 10:00:54;;;;;;;;;;;;;;;22.21;31.60;97626.69;5052648;28;931;-77
2022/08/07 10:03:26;;;;;;;;;;;;;;;22.44;31.25;97631.16;5038408;28;743;-77
2022/08/07 10:05:58;;;;;;;;;;;;;;;22.55;31.34;97628.72;5053157;28;774;-77
2022/08/07 10:08:54;;;;;;;;;;;;;;;22.46;31.16;97620.16;5035554;28;928;-77
2022/08/07 10:11:38;;;;;;;;;;;;;;;22.29;31.43;97611.81;5055441;28;1969;-77
2022/08/07 10:14:05;;;;;;;;;;;;;;;22.28;31.54;97626.47;5055393;28;759;-77
2022/08/07 10:16:34;;;;;;;;;;;;;;;22.53;31.12;97625.56;5038591;28;1408;-77
2022/08/07 10:19:17;;;;;;;;;;;;;;;22.10;31.93;97625.03;5018770;28;874;-77
2022/08/07 10:21:48;;;;;;;;;;;;;;;22.26;31.59;97629.75;4995409;28;906;-77
2022/08/07 10:24:20;;;;;;;;;;;;;;;22.27;31.35;97631.31;4996062;28;785;-77
2022/08/07 10:26:56;;;;;;;;;;;;;;;22.43;31.39;97643.75;4995722;28;905;-77
2022/08/07 10:29:28;;;;;;;;;;;;;;;22.10;31.79;97624.22;4996200;28;969;-77
2022/08/07 10:32:11;;;;;;;;;;;;;;;22.22;31.79;97612.06;4995432;28;1969;-77
2022/08/07 10:34:55;;;;;;;;;;;;;;;22.15;31.71;97623.66;4995514;28;1017;-77
2022/08/07 10:37:24;;;;;;;;;;;;;;;22.45;31.21;97622.19;4995436;28;799;-77
2022/08/07 10:39:52;;;;;;;;;;;;;;;22.69;30.88;97622.56;4975817;28;951;-77
2022/08/07 10:42:37;;;;;;;;;;;;;;;22.81;30.70;97624.50;4975764;28;852;-77
2022/08/07 10:45:09;;;;;;;;;;;;;;;22.41;31.36;97624.34;4975909;28;866;-77
2022/08/07 10:48:03;;;;;;;;;;;;;;;22.54;30.91;97627.94;4975782;28;1051;-77
2022/08/07 10:50:44;;;;;;;;;;;;;;;22.23;31.45;97625.00;4937395;29;1009;-77
2022/08/07 10:53:12;;;;;;;;;;;;;;;22.21;31.59;97621.81;4931001;29;1906;-77
2022/08/07 10:55:50;;;;;;;;;;;;;;;22.40;31.24;97627.66;4921846;29;1013;-77
2022/08/07 10:58:25;;;;;;;;;;;;;;;22.39;31.46;97620.41;4917955;29;1006;-77
2022/08/07 11:00:59;;;;;;;;;;;;;;;22.31;31.43;97614.97;4918168;29;996;-77
2022/08/07 11:03:57;;;;;;;;;;;;;;;22.51;31.15;97611.84;4918127;29;1102;-77
2022/08/07 11:06:25;;;;;;;;;;;;;;;22.47;31.02;97604.72;4861413;29;1024;-77
2022/08/07 11:08:56;;;;;;;;;;;;;;;22.34;31.26;97602.75;4861917;29;901;-77
2022/08/07 11:11:32;;;;;;;;;;;;;;;22.40;31.59;97611.44;4861702;29;1978;-77
2022/08/07 11:14:06;;;;;;;;;;;;;;;22.59;31.23;97623.72;4846506;29;925;-77
2022/08/07 11:16:40;;;;;;;;;;;;;;;22.67;30.89;97613.69;4861860;29;988;-77
2022/08/07 11:19:25;;;;;;;;;;;;;;;22.61;31.00;97605.00;4861857;29;938;-77
2022/08/07 11:21:57;;;;;;;;;;;;;;;22.60;31.10;97613.97;4861730;29;1033;-77
2022/08/07 11:24:24;;;;;;;;;;;;;;;22.39;31.47;97609.09;4872322;29;923;-77
2022/08/07 11:26:52;;;;;;;;;;;;;;;22.49;31.45;97602.22;4864629;29;962;-77
2022/08/07 11:29:37;;;;;;;;;;;;;;;22.32;31.61;97593.88;4908075;29;904;-77
2022/08/07 11:32:12;;;;;;;;;;;;;;;22.39;31.59;97609.09;4901813;29;1943;-77
2022/08/07 11:34:43;;;;;;;;;;;;;;;22.27;31.71;97602.97;4917609;29;1040;-77
2022/08/07 11:37:17;;;;;;;;;;;;;;;22.42;31.67;97596.81;4917422;29;907;-77
2022/08/07 11:39:42;;;;;;;;;;;;;;;22.25;31.72;97616.81;4920454;29;1578;-77
2022/08/07 11:42:17;;;;;;;;;;;;;;;22.48;31.34;97600.63;4930827;29;1701;-77
2022/08/07 11:44:54;;;;;;;;;;;;;;;22.43;31.70;97587.03;4972833;28;812;-78
2022/08/07 11:47:39;;;;;;;;;;;;;;;22.43;31.66;97610.50;4982715;28;1056;-77
2022/08/07 11:50:05;;;;;;;;;;;;;;;22.48;31.35;97606.28;4994085;28;956;-77
2022/08/07 11:52:49;;;;;;;;;;;;;;;22.45;31.44;97590.22;4993433;28;1923;-77
2022/08/07 11:55:17;;;;;;;;;;;;;;;22.54;31.55;97595.97;4993912;28;945;-77
2022/08/07 11:57:45;;;;;;;;;;;;;;;22.56;31.38;97604.78;4993967;28;935;-77
2022/08/07 12:00:18;;;;;;;;;;;;;;;22.47;31.29;97599.03;4985163;28;906;-77
2022/08/07 12:02:59;;;;;;;;;;;;;;;22.51;31.39;97602.56;4974506;28;886;-77
2022/08/07 12:05:43;;;;;;;;;;;;;;;22.49;31.60;97599.41;4974501;28;969;-77
2022/08/07 12:08:17;;;;;;;;;;;;;;;22.57;31.32;97603.53;4974590;28;810;-77
2022/08/07 12:10:51;;;;;;;;;;;;;;;22.55;31.13;97606.84;4974530;28;904;-77
2022/08/07 12:13:16;;;;;;;;;;;;;;;22.64;31.24;97603.28;4974512;28;1985;-77
2022/08/07 12:15:46;;;;;;;;;;;;;;;22.57;31.58;97604.31;4974239;28;1439;-77
2022/08/07 12:18:44;;;;;;;;;;;;;;;22.36;31.79;97600.22;4954746;29;908;-77
2022/08/07 12:21:28;;;;;;;;;;;;;;;22.58;31.51;97599.44;4916747;29;913;-77
2022/08/07 12:24:06;;;;;;;;;;;;;;;22.57;31.34;97603.53;4916766;29;1001;-77
2022/08/07 12:26:37;;;;;;;;;;;;;;;22.31;32.09;97602.84;4916979;29;928;-77
2022/08/07 12:29:15;;;;;;;;;;;;;;;22.41;31.74;97603.72;4916785;29;799;-77
2022/08/07 12:31:43;;;;;;;;;;;;;;;22.35;31.71;97592.97;4878906;29;2095;-77
2022/08/07 12:34:09;;;;;;;;;;;;;;;22.58;31.65;97599.44;4866872;29;897;-77
2022/08/07 12:36:34;;;;;;;;;;;;;;;22.28;31.94;97586.78;4860681;29;993;-77
2022/08/07 12:39:05;;;;;;;;;;;;;;;22.59;31.48;97595.38;4876140;29;910;-77
2022/08/07 12:41:32;;;;;;;;;;;;;;;22.53;31.64;97597.19;4878820;29;955;-77
2022/08/07 12:43:58;;;;;;;;;;;;;;;22.49;31.63;97590.88;4879080;29;894;-77
2022/08/07 12:46:38;;;;;;;;;;;;;;;22.36;31.92;97591.72;4878797;29;923;-77
2022/08/07 12:49:04;;;;;;;;;;;;;;;22.50;31.54;97596.09;4879261;29;800;-77
2022/08/07 12:51:39;;;;;;;;;;;;;;;22.47;31.69;97590.53;4878660;29;1970;-77
2022/08/07 12:54:14;;;;;;;;;;;;;;;22.36;31.55;97594.56;4879624;29;856;-77
2022/08/07 12:56:42;;;;;;;;;;;;;;;22.62;31.33;97588.75;4896458;29;963;-77
2022/08/07 12:59:09;;;;;;;;;;;;;;;22.65;31.46;97576.50;4897712;29;887;-77
2022/08/07 13:01:39;;;;;;;;;;;;;;;22.70;31.23;97595.75;4900398;29;928;-77
2022/08/07 13:04:13;;;;;;;;;;;;;;;22.51;31.47;97582.72;4971738;28;787;-77
2022/08/07 13:06:57;;;;;;;;;;;;;;;22.56;31.77;97588.56;4958278;29;931;-76
2022/08/07 13:09:30;;;;;;;;;;;;;;;22.43;31.96;97587.03;4958284;29;775;-77
2022/08/07 13:12:13;;;;;;;;;;;;;;;22.45;32.02;97584.56;4979167;28;1911;-77
2022/08/07 13:14:57;;;;;;;;;;;;;;;22.53;31.61;97591.53;4977518;28;1197;-77
2022/08/07 13:17:26;;;;;;;;;;;;;;;22.41;31.90;97581.06;4977620;28;909;-77
2022/08/07 13:20:10;;;;;;;;;;;;;;;22.51;31.93;97583.50;4977362;28;1319;-77